Time;durP1;ratioP1;P1;durP2;ratioP2;P2;SDS_P1;SDS_P2;PMS_P1;PMS_P2;Temp;Humidity;BMP_temperature;BMP_pressure;BME280_temperature;BME280_humidity;BME280_pressure;Samples;Min_cycle;Max_cycle;Signal;HPM_P1;HPM_P2
2022/07/26 00:00:21;;;;;;;10.07;3.60;;;19.40;99.90;;;;;;5096485;28;20051;-71
2022/07/26 00:02:47;;;;;;;12.37;2.70;;;19.40;99.90;;;;;;5095856;28;20048;-70
2022/07/26 00:05:13;;;;;;;12.30;3.17;;;19.30;99.90;;;;;;5096214;28;20044;-71
2022/07/26 00:07:39;;;;;;;11.93;3.00;;;19.30;99.90;;;;;;5096517;28;20439;-70
2022/07/26 00:10:05;;;;;;;13.70;4.10;;;19.30;99.90;;;;;;5095903;28;20080;-71
2022/07/26 00:12:32;;;;;;;14.47;4.40;;;19.30;99.90;;;;;;5095662;28;20039;-70
2022/07/26 00:14:58;;;;;;;16.13;3.23;;;19.40;99.90;;;;;;5095811;28;20036;-71
2022/07/26 00:17:23;;;;;;;10.70;3.60;;;19.30;99.90;;;;;;5095797;28;20132;-71
2022/07/26 00:19:49;;;;;;;8.33;2.63;;;19.40;99.90;;;;;;5095762;28;20059;-71
2022/07/26 00:22:33;;;;;;;12.30;3.30;;;19.30;99.90;;;;;;5095657;28;20039;-71
2022/07/26 00:24:59;;;;;;;9.30;2.50;;;19.30;99.90;;;;;;5095695;28;20479;-70
2022/07/26 00:27:25;;;;;;;9.20;3.40;;;19.30;99.90;;;;;;5094991;28;20040;-71
2022/07/26 00:29:50;;;;;;;15.70;3.80;;;19.30;99.90;;;;;;5095638;28;20540;-71
2022/07/26 00:32:16;;;;;;;9.87;3.10;;;19.30;99.90;;;;;;5095497;28;20076;-71
2022/07/26 00:34:42;;;;;;;7.63;2.60;;;19.30;99.90;;;;;;5095485;28;20044;-71
2022/07/26 00:37:08;;;;;;;9.50;3.00;;;19.30;99.90;;;;;;5095637;28;20093;-71
2022/07/26 00:39:33;;;;;;;6.67;2.63;;;19.30;99.90;;;;;;5095358;28;20048;-71
2022/07/26 00:41:59;;;;;;;9.93;2.37;;;19.30;99.90;;;;;;5094700;28;20036;-71
2022/07/26 00:44:35;;;;;;;7.97;2.20;;;19.30;99.90;;;;;;5095266;28;20048;-71
2022/07/26 00:47:01;;;;;;;6.90;2.33;;;19.30;99.90;;;;;;5095336;28;20472;-71
2022/07/26 00:49:27;;;;;;;7.20;2.60;;;19.30;99.90;;;;;;5095130;28;20135;-71
2022/07/26 00:51:53;;;;;;;8.60;2.37;;;19.30;99.90;;;;;;5095211;28;20048;-71
2022/07/26 00:54:18;;;;;;;6.57;2.60;;;19.30;99.90;;;;;;5095583;28;20044;-71
2022/07/26 00:56:45;;;;;;;6.50;2.73;;;19.30;99.90;;;;;;5095541;28;20103;-71
2022/07/26 00:59:10;;;;;;;6.57;2.40;;;19.30;99.90;;;;;;5094643;28;20511;-71
2022/07/26 01:01:36;;;;;;;8.27;2.70;;;19.30;99.90;;;;;;5095211;28;20047;-71
2022/07/26 01:04:02;;;;;;;6.93;2.87;;;19.20;99.90;;;;;;5095197;28;20391;-71
2022/07/26 01:06:27;;;;;;;5.33;2.27;;;19.30;99.90;;;;;;5094828;28;20052;-71
2022/07/26 01:08:54;;;;;;;6.03;2.70;;;19.30;99.90;;;;;;5094666;28;20044;-71
2022/07/26 01:11:19;;;;;;;7.93;3.10;;;19.30;99.90;;;;;;5095019;28;20113;-71
2022/07/26 01:13:49;;;;;;;6.10;2.73;;;19.30;99.90;;;;;;5094679;28;20036;-71
2022/07/26 01:16:15;;;;;;;5.90;2.23;;;19.30;99.90;;;;;;5093451;28;20040;-71
2022/07/26 01:18:41;;;;;;;6.10;2.73;;;19.30;99.90;;;;;;5094625;28;20040;-71
2022/07/26 01:21:09;;;;;;;6.40;2.67;;;19.30;99.90;;;;;;5094605;28;20526;-71
2022/07/26 01:23:36;;;;;;;7.43;2.70;;;19.30;99.90;;;;;;5094012;28;20515;-71
2022/07/26 01:26:02;;;;;;;9.87;2.80;;;19.20;99.90;;;;;;5094165;28;20526;-71
2022/07/26 01:28:28;;;;;;;8.27;2.80;;;19.20;99.90;;;;;;5094462;28;20044;-71
2022/07/26 01:30:54;;;;;;;5.50;2.60;;;19.20;99.90;;;;;;5094432;28;20054;-71
2022/07/26 01:33:20;;;;;;;9.93;2.73;;;19.20;99.90;;;;;;5093855;28;20075;-71
2022/07/26 01:35:46;;;;;;;7.70;3.23;;;19.20;99.90;;;;;;5094288;28;20079;-71
2022/07/26 01:38:12;;;;;;;9.03;3.27;;;19.20;99.90;;;;;;5095061;28;20066;-71
2022/07/26 01:40:37;;;;;;;10.70;3.20;;;19.20;99.90;;;;;;5094776;28;20134;-71
2022/07/26 01:43:03;;;;;;;7.57;2.70;;;19.20;99.90;;;;;;5094202;28;20578;-71
2022/07/26 01:45:29;;;;;;;9.03;2.90;;;19.20;99.90;;;;;;5093019;28;20040;-71
2022/07/26 01:47:54;;;;;;;8.23;2.50;;;19.20;99.90;;;;;;5093785;28;20082;-71
2022/07/26 01:50:20;;;;;;;6.30;2.70;;;19.20;99.90;;;;;;5093935;28;20052;-71
2022/07/26 01:52:46;;;;;;;8.80;2.90;;;19.20;99.90;;;;;;5093941;28;20040;-71
2022/07/26 01:55:12;;;;;;;8.57;2.50;;;19.20;99.90;;;;;;5092930;28;20483;-71
2022/07/26 01:57:37;;;;;;;8.47;2.70;;;19.20;99.90;;;;;;5094007;28;20048;-71
2022/07/26 02:00:05;;;;;;;8.40;2.77;;;19.20;99.90;;;;;;5093916;28;20047;-71
2022/07/26 02:02:31;;;;;;;12.40;3.07;;;19.10;99.90;;;;;;5094348;28;20422;-71
2022/07/26 02:05:00;;;;;;;10.90;2.60;;;19.10;99.90;;;;;;5093791;28;20046;-71
2022/07/26 02:07:27;;;;;;;6.53;2.00;;;19.10;99.90;;;;;;5093766;28;20051;-71
2022/07/26 02:09:53;;;;;;;8.10;2.73;;;19.20;99.90;;;;;;5093766;28;20122;-71
2022/07/26 02:12:19;;;;;;;10.23;3.10;;;19.20;99.90;;;;;;5094456;28;20075;-71
2022/07/26 02:14:45;;;;;;;11.57;3.57;;;19.20;99.90;;;;;;5093728;28;20414;-70
2022/07/26 02:17:11;;;;;;;11.70;2.67;;;19.20;99.90;;;;;;5093694;28;20052;-70
2022/07/26 02:19:37;;;;;;;9.17;2.90;;;19.10;99.90;;;;;;5093572;28;20044;-70
2022/07/26 02:22:03;;;;;;;6.80;2.60;;;19.00;99.90;;;;;;5092054;28;20044;-69
2022/07/26 02:24:29;;;;;;;10.43;3.17;;;19.00;99.90;;;;;;5094373;28;20044;-70
2022/07/26 02:26:59;;;;;;;7.13;2.37;;;18.90;99.90;;;;;;5093564;28;20392;-69
2022/07/26 02:29:26;;;;;;;10.60;3.27;;;18.90;99.90;;;;;;5093782;28;20137;-70
2022/07/26 02:31:52;;;;;;;9.97;2.40;;;18.90;99.90;;;;;;5093875;28;20054;-69
2022/07/26 02:34:19;;;;;;;9.50;2.87;;;18.90;99.90;;;;;;5094297;28;20062;-69
2022/07/26 02:36:45;;;;;;;8.53;2.43;;;18.90;99.90;;;;;;5095696;28;20040;-70
2022/07/26 02:39:11;;;;;;;7.17;2.60;;;18.80;99.90;;;;;;5097720;28;20135;-69
2022/07/26 02:41:37;;;;;;;11.93;2.57;;;18.80;99.90;;;;;;5097670;28;20050;-69
2022/07/26 02:44:03;;;;;;;9.20;2.60;;;18.70;99.90;;;;;;5097663;28;20440;-69
2022/07/26 02:46:29;;;;;;;8.10;2.57;;;18.70;99.90;;;;;;5097189;28;20476;-70
2022/07/26 02:48:55;;;;;;;8.00;2.40;;;18.60;99.90;;;;;;5097206;28;20055;-69
2022/07/26 02:51:20;;;;;;;10.83;2.80;;;18.60;99.90;;;;;;5097496;28;20066;-69
2022/07/26 02:53:46;;;;;;;9.67;2.37;;;18.60;99.90;;;;;;5097350;28;20040;-69
2022/07/26 02:56:12;;;;;;;8.57;2.40;;;18.60;99.90;;;;;;5097907;28;20546;-69
2022/07/26 02:58:37;;;;;;;9.67;2.97;;;18.50;99.90;;;;;;5096600;28;20049;-69
2022/07/26 03:01:04;;;;;;;11.10;2.90;;;18.50;99.90;;;;;;5097848;28;20494;-69
2022/07/26 03:03:29;;;;;;;10.20;2.57;;;18.50;99.90;;;;;;5097740;28;20110;-69
2022/07/26 03:05:55;;;;;;;7.70;2.43;;;18.50;99.90;;;;;;5097466;28;20069;-69
2022/07/26 03:08:21;;;;;;;10.90;3.17;;;18.50;99.90;;;;;;5079202;28;20078;-69
2022/07/26 03:10:47;;;;;;;10.80;2.47;;;18.50;99.90;;;;;;5097076;28;20066;-69
2022/07/26 03:13:13;;;;;;;12.97;3.10;;;18.40;99.90;;;;;;5096955;28;20044;-69
2022/07/26 03:15:39;;;;;;;11.93;2.50;;;18.40;99.90;;;;;;5096359;28;20044;-69
2022/07/26 03:18:04;;;;;;;9.53;2.43;;;18.40;99.90;;;;;;5096513;28;20090;-69
2022/07/26 03:20:30;;;;;;;9.60;1.90;;;18.40;99.90;;;;;;5096807;28;20060;-69
2022/07/26 03:22:56;;;;;;;9.37;2.13;;;18.40;99.90;;;;;;5096803;28;20036;-69
2022/07/26 03:25:21;;;;;;;9.70;2.07;;;18.40;99.90;;;;;;5096682;28;20048;-69
2022/07/26 03:27:47;;;;;;;11.40;3.40;;;18.30;99.90;;;;;;5096698;28;20046;-69
2022/07/26 03:30:14;;;;;;;7.53;1.90;;;18.30;99.90;;;;;;5096193;28;20131;-69
2022/07/26 03:32:40;;;;;;;9.00;2.13;;;18.30;99.90;;;;;;5096520;28;20032;-69
2022/07/26 03:35:07;;;;;;;8.73;2.10;;;18.20;99.90;;;;;;5097332;28;20115;-69
2022/07/26 03:37:33;;;;;;;8.50;2.30;;;18.20;99.90;;;;;;5096310;28;20126;-69
2022/07/26 03:39:59;;;;;;;8.93;2.20;;;18.20;99.90;;;;;;5096761;28;20043;-69
2022/07/26 03:42:24;;;;;;;11.97;2.63;;;18.20;99.90;;;;;;5096404;28;20499;-69
2022/07/26 03:44:50;;;;;;;10.60;2.03;;;18.20;99.90;;;;;;5095371;28;20120;-69
2022/07/26 03:47:16;;;;;;;7.87;1.80;;;18.20;99.90;;;;;;5095560;28;20048;-69
2022/07/26 03:49:41;;;;;;;7.73;1.90;;;18.20;99.90;;;;;;5096281;28;20048;-70
2022/07/26 03:52:09;;;;;;;8.73;1.80;;;18.30;99.90;;;;;;5096026;28;20055;-70
2022/07/26 03:54:35;;;;;;;9.17;2.07;;;18.20;99.90;;;;;;5096245;28;20054;-71
2022/07/26 03:57:01;;;;;;;8.57;1.90;;;18.20;99.90;;;;;;5096185;28;20051;-69
2022/07/26 03:59:27;;;;;;;6.20;1.80;;;18.10;99.90;;;;;;5095868;28;20044;-70
2022/07/26 04:01:52;;;;;;;13.57;1.93;;;18.10;99.90;;;;;;5095090;28;20047;-69
2022/07/26 04:04:18;;;;;;;7.23;1.50;;;18.10;99.90;;;;;;5096572;28;20044;-69
2022/07/26 04:06:46;;;;;;;11.13;2.13;;;18.10;99.90;;;;;;5096733;28;20052;-69
2022/07/26 04:09:13;;;;;;;7.90;1.37;;;18.10;99.90;;;;;;5095911;28;20082;-69
2022/07/26 04:11:39;;;;;;;8.23;1.53;;;18.10;99.90;;;;;;5095838;28;20082;-69
2022/07/26 04:14:05;;;;;;;10.73;2.17;;;18.10;99.90;;;;;;5094643;28;20109;-69
2022/07/26 04:16:31;;;;;;;9.73;1.67;;;18.10;99.90;;;;;;5095812;28;20081;-69
2022/07/26 04:18:56;;;;;;;7.43;2.10;;;18.10;99.90;;;;;;5095949;28;20036;-69
2022/07/26 04:21:22;;;;;;;8.50;1.73;;;18.00;99.90;;;;;;5095671;28;20087;-69
2022/07/26 04:23:48;;;;;;;7.83;1.57;;;18.10;99.90;;;;;;5095667;28;20039;-69
2022/07/26 04:26:14;;;;;;;7.77;1.53;;;18.00;99.90;;;;;;5096101;28;20047;-69
2022/07/26 04:28:40;;;;;;;13.07;2.07;;;18.10;99.90;;;;;;5095527;28;20048;-69
2022/07/26 04:31:06;;;;;;;8.70;1.80;;;18.10;99.90;;;;;;5095505;28;20047;-69
2022/07/26 04:33:32;;;;;;;9.50;2.20;;;18.10;99.90;;;;;;5096195;28;20036;-69
2022/07/26 04:35:58;;;;;;;7.30;1.80;;;18.10;99.90;;;;;;5095456;28;20545;-69
2022/07/26 04:38:24;;;;;;;7.57;1.43;;;18.10;99.90;;;;;;5095864;28;20054;-68
2022/07/26 04:40:50;;;;;;;6.00;1.50;;;18.10;99.90;;;;;;5095075;28;20525;-69
2022/07/26 04:43:16;;;;;;;7.43;1.40;;;18.00;99.90;;;;;;5095839;28;20047;-68
2022/07/26 04:45:46;;;;;;;8.40;1.87;;;18.00;99.90;;;;;;5095056;28;20044;-69
2022/07/26 04:48:15;;;;;;;8.47;1.80;;;18.00;99.90;;;;;;5095055;28;20399;-68
2022/07/26 04:50:42;;;;;;;8.03;2.20;;;17.90;99.90;;;;;;5095113;28;20044;-69
2022/07/26 04:53:09;;;;;;;7.80;1.60;;;17.90;99.90;;;;;;5093918;28;20079;-69
2022/07/26 04:55:36;;;;;;;6.10;1.57;;;17.90;99.90;;;;;;5095119;28;20097;-69
2022/07/26 04:58:02;;;;;;;6.23;1.30;;;18.00;99.90;;;;;;5094705;28;20048;-69
2022/07/26 05:00:28;;;;;;;8.63;2.07;;;18.00;99.90;;;;;;5094466;28;20040;-69
2022/07/26 05:02:57;;;;;;;6.80;1.53;;;18.10;99.90;;;;;;5094925;28;20043;-69
2022/07/26 05:05:24;;;;;;;6.10;1.60;;;18.10;99.90;;;;;;5094866;28;20089;-69
2022/07/26 05:07:52;;;;;;;7.17;1.47;;;18.10;99.90;;;;;;5094842;28;20127;-69
2022/07/26 05:10:20;;;;;;;7.33;1.57;;;18.10;99.90;;;;;;5094819;28;20044;-69
2022/07/26 05:12:46;;;;;;;7.87;1.73;;;18.10;99.90;;;;;;5094699;28;20043;-70
2022/07/26 05:15:12;;;;;;;7.13;1.50;;;18.00;99.90;;;;;;5094704;28;20122;-69
2022/07/26 05:17:39;;;;;;;15.03;2.43;;;18.10;99.90;;;;;;5095310;28;20117;-70
2022/07/26 05:20:06;;;;;;;7.27;1.43;;;18.00;99.90;;;;;;5093681;28;20047;-69
2022/07/26 05:22:34;;;;;;;6.37;1.30;;;17.90;99.90;;;;;;5094587;28;20097;-70
2022/07/26 05:24:59;;;;;;;6.63;2.13;;;18.00;99.90;;;;;;5093401;28;20075;-70
2022/07/26 05:27:25;;;;;;;8.77;1.67;;;18.00;99.90;;;;;;5094526;28;20080;-70
2022/07/26 05:29:51;;;;;;;7.60;1.60;;;18.00;99.90;;;;;;5095435;28;20044;-70
2022/07/26 05:32:17;;;;;;;6.63;1.87;;;18.00;99.90;;;;;;5094296;28;20466;-70
2022/07/26 05:34:43;;;;;;;6.60;1.73;;;18.00;99.90;;;;;;5094797;28;20132;-70
2022/07/26 05:37:09;;;;;;;5.83;1.47;;;18.10;99.90;;;;;;5094182;28;20126;-70
2022/07/26 05:39:34;;;;;;;5.23;1.40;;;18.10;99.90;;;;;;5094179;28;20048;-72
2022/07/26 05:42:00;;;;;;;8.57;1.60;;;18.10;99.90;;;;;;5076330;28;20052;-71
2022/07/26 05:44:26;;;;;;;7.80;1.90;;;18.10;99.90;;;;;;5094105;28;20078;-70
2022/07/26 05:46:51;;;;;;;6.83;1.70;;;18.10;99.90;;;;;;5092824;28;20052;-70
2022/07/26 05:49:17;;;;;;;10.80;1.60;;;18.10;99.90;;;;;;5094047;28;20059;-70
2022/07/26 05:51:43;;;;;;;8.37;1.80;;;18.00;99.90;;;;;;5094216;28;20047;-73
2022/07/26 05:54:08;;;;;;;9.97;1.73;;;18.10;99.90;;;;;;5093180;28;20459;-70
2022/07/26 05:56:34;;;;;;;6.93;1.90;;;18.10;99.90;;;;;;5094279;28;20040;-71
2022/07/26 05:59:00;;;;;;;7.30;1.70;;;18.00;99.90;;;;;;5094042;28;20079;-70
2022/07/26 06:01:28;;;;;;;6.60;1.50;;;18.00;99.90;;;;;;5092935;28;20083;-70
2022/07/26 06:03:54;;;;;;;4.63;1.23;;;18.00;99.90;;;;;;5093834;28;20051;-71
2022/07/26 06:06:19;;;;;;;7.03;1.40;;;18.00;99.90;;;;;;5092845;28;20430;-71
2022/07/26 06:08:45;;;;;;;9.23;1.63;;;18.00;99.90;;;;;;5094016;28;20047;-71
2022/07/26 06:11:11;;;;;;;7.53;1.40;;;18.10;99.90;;;;;;5093858;28;20528;-71
2022/07/26 06:13:36;;;;;;;6.33;1.40;;;18.20;99.90;;;;;;5094250;28;20415;-70
2022/07/26 06:16:02;;;;;;;6.80;1.20;;;18.30;99.90;;;;;;5093740;28;20135;-71
2022/07/26 06:18:28;;;;;;;7.87;1.33;;;18.40;99.90;;;;;;5093897;28;20105;-70
2022/07/26 06:20:54;;;;;;;4.77;1.10;;;18.40;99.90;;;;;;5094198;28;20044;-71
2022/07/26 06:23:20;;;;;;;5.47;1.43;;;18.40;99.90;;;;;;5094192;28;20047;-71
2022/07/26 06:25:46;;;;;;;5.57;1.43;;;18.40;99.90;;;;;;5093599;28;20078;-70
2022/07/26 06:28:11;;;;;;;7.63;1.40;;;18.40;99.90;;;;;;5092380;28;20097;-70
2022/07/26 06:30:38;;;;;;;8.63;1.90;;;18.40;99.90;;;;;;5093583;28;20059;-70
2022/07/26 06:33:06;;;;;;;7.13;1.17;;;18.30;99.90;;;;;;5092597;28;20090;-70
2022/07/26 06:35:34;;;;;;;5.83;1.63;;;18.20;99.90;;;;;;5092385;28;20048;-70
2022/07/26 06:38:01;;;;;;;9.50;2.13;;;18.10;99.90;;;;;;5093507;28;20047;-71
2022/07/26 06:40:26;;;;;;;8.53;1.73;;;18.10;99.90;;;;;;5093493;28;20104;-71
2022/07/26 06:42:52;;;;;;;7.30;1.60;;;18.00;99.90;;;;;;5093514;28;20123;-71
2022/07/26 06:45:18;;;;;;;6.53;1.60;;;18.00;99.90;;;;;;5093690;28;20531;-70
2022/07/26 06:47:44;;;;;;;4.73;1.10;;;18.10;99.90;;;;;;5093077;28;20416;-70
2022/07/26 06:50:10;;;;;;;8.50;1.80;;;18.00;99.90;;;;;;5093357;28;20052;-71
2022/07/26 06:52:36;;;;;;;11.20;2.27;;;18.10;99.90;;;;;;5093546;28;20490;-71
2022/07/26 06:55:02;;;;;;;7.40;1.53;;;18.00;99.90;;;;;;5093862;28;20127;-71
2022/07/26 06:57:28;;;;;;;5.07;1.40;;;18.20;99.90;;;;;;5093313;28;20052;-71
2022/07/26 06:59:54;;;;;;;4.40;1.60;;;18.30;99.90;;;;;;5092013;28;20102;-71
2022/07/26 07:02:20;;;;;;;7.83;1.60;;;18.40;99.90;;;;;;5093221;28;20051;-71
2022/07/26 07:04:45;;;;;;;6.93;1.40;;;18.50;99.90;;;;;;5093264;28;20504;-71
2022/07/26 07:07:11;;;;;;;9.77;1.60;;;18.60;99.90;;;;;;5093255;28;20048;-71
2022/07/26 07:09:37;;;;;;;8.43;1.63;;;18.80;99.90;;;;;;5093235;28;20040;-71
2022/07/26 07:12:04;;;;;;;12.50;2.20;;;19.00;99.90;;;;;;5093105;28;20127;-71
2022/07/26 07:14:30;;;;;;;6.40;1.30;;;19.20;99.90;;;;;;5093139;28;20116;-71
2022/07/26 07:16:56;;;;;;;6.53;1.50;;;19.30;99.90;;;;;;5091914;28;20101;-71
2022/07/26 07:19:22;;;;;;;4.53;1.40;;;19.50;99.90;;;;;;5093370;28;20048;-71
2022/07/26 07:21:48;;;;;;;7.80;1.93;;;19.40;99.90;;;;;;5093581;28;20102;-71
2022/07/26 07:24:13;;;;;;;9.60;1.80;;;19.50;99.90;;;;;;5096903;28;20109;-71
2022/07/26 07:26:40;;;;;;;7.10;1.63;;;19.40;99.90;;;;;;5097211;28;20477;-71
2022/07/26 07:29:06;;;;;;;7.43;1.50;;;19.50;99.90;;;;;;5096823;28;20118;-71
2022/07/26 07:31:31;;;;;;;7.20;1.70;;;19.50;99.90;;;;;;5096832;28;20128;-71
2022/07/26 07:33:57;;;;;;;9.87;2.37;;;19.50;99.90;;;;;;5096609;28;20050;-71
2022/07/26 07:36:23;;;;;;;5.90;1.60;;;19.40;99.90;;;;;;5095784;28;20059;-71
2022/07/26 07:38:49;;;;;;;8.00;1.80;;;19.30;99.90;;;;;;5096672;28;20055;-71
2022/07/26 07:41:15;;;;;;;6.80;1.60;;;19.30;99.90;;;;;;5096841;28;20503;-71
2022/07/26 07:43:40;;;;;;;7.77;2.43;;;19.30;99.90;;;;;;5097340;28;20070;-71
2022/07/26 07:46:06;;;;;;;6.77;1.50;;;19.00;99.90;;;;;;5096243;28;20048;-71
2022/07/26 07:48:32;;;;;;;9.23;2.33;;;18.90;99.90;;;;;;5096325;28;20055;-71
2022/07/26 07:50:57;;;;;;;10.57;2.07;;;18.80;99.90;;;;;;5095702;28;20047;-72
2022/07/26 07:53:23;;;;;;;9.77;2.10;;;18.70;99.90;;;;;;5096783;28;20065;-71
2022/07/26 07:55:49;;;;;;;12.53;2.63;;;18.70;99.90;;;;;;5096353;28;20040;-71
2022/07/26 07:58:16;;;;;;;8.90;2.10;;;18.70;99.90;;;;;;5096286;28;20055;-71
2022/07/26 08:00:42;;;;;;;10.30;2.00;;;18.80;99.90;;;;;;5096016;28;20044;-71
2022/07/26 08:03:07;;;;;;;9.80;1.93;;;18.90;99.90;;;;;;5096155;28;20043;-71
2022/07/26 08:05:33;;;;;;;10.87;2.43;;;19.00;99.90;;;;;;5096899;28;20040;-71
2022/07/26 08:07:59;;;;;;;11.47;2.00;;;19.10;99.90;;;;;;5096107;28;20055;-74
2022/07/26 08:10:25;;;;;;;7.17;1.90;;;19.20;99.90;;;;;;5094969;28;20344;-71
2022/07/26 08:12:50;;;;;;;11.50;2.13;;;19.10;99.90;;;;;;5078281;28;20503;-71
2022/07/26 08:15:16;;;;;;;10.90;2.90;;;19.10;99.90;;;;;;5095945;28;20062;-71
2022/07/26 08:17:42;;;;;;;6.93;2.00;;;19.10;99.90;;;;;;5095916;28;20044;-71
2022/07/26 08:20:08;;;;;;;7.97;2.10;;;19.30;99.90;;;;;;5095861;28;20048;-72
2022/07/26 08:22:34;;;;;;;11.20;2.33;;;19.40;99.90;;;;;;5095780;28;20071;-71
2022/07/26 08:25:00;;;;;;;9.93;2.10;;;19.50;99.90;;;;;;5095765;28;20099;-71
2022/07/26 08:27:25;;;;;;;9.63;2.10;;;19.60;99.90;;;;;;5095710;28;20051;-71
2022/07/26 08:29:51;;;;;;;11.70;2.20;;;19.60;99.90;;;;;;5095657;28;20044;-71
2022/07/26 08:32:17;;;;;;;9.83;2.10;;;19.50;99.90;;;;;;5094886;28;20071;-71
2022/07/26 08:34:42;;;;;;;9.10;2.20;;;19.50;99.90;;;;;;5095271;28;20122;-71
2022/07/26 08:37:08;;;;;;;6.03;1.90;;;19.40;99.90;;;;;;5095452;28;20044;-71
2022/07/26 08:39:34;;;;;;;8.60;2.10;;;19.40;99.90;;;;;;5095473;28;20365;-71
2022/07/26 08:42:02;;;;;;;7.90;2.03;;;19.40;99.90;;;;;;5094382;28;20117;-71
2022/07/26 08:44:28;;;;;;;12.90;2.60;;;19.30;99.90;;;;;;5094608;28;20123;-71
2022/07/26 08:46:54;;;;;;;10.90;1.97;;;19.40;99.90;;;;;;5094887;28;20535;-71
2022/07/26 08:49:19;;;;;;;8.93;1.80;;;19.50;99.90;;;;;;5094267;28;20052;-71
2022/07/26 08:51:45;;;;;;;7.80;2.33;;;19.60;99.90;;;;;;5095123;28;20078;-71
2022/07/26 08:54:13;;;;;;;8.47;2.03;;;19.70;99.90;;;;;;5095108;28;20186;-71
2022/07/26 08:56:49;;;;;;;9.17;1.80;;;19.80;99.90;;;;;;5095048;28;20127;-71
2022/07/26 08:59:18;;;;;;;15.87;3.23;;;19.80;99.90;;;;;;5095296;28;20510;-71
2022/07/26 09:02:10;;;;;;;19.30;3.70;;;19.70;99.90;;;;;;5095029;28;20123;-72
2022/07/26 09:04:43;;;;;;;15.97;3.83;;;19.50;99.90;;;;;;5093688;28;20067;-72
2022/07/26 09:07:12;;;;;;;13.63;3.30;;;19.40;99.90;;;;;;5095748;28;20044;-71
2022/07/26 09:09:55;;;;;;;11.27;2.77;;;19.10;99.90;;;;;;5094841;28;20471;-71
2022/07/26 09:12:23;;;;;;;10.93;2.73;;;18.90;99.90;;;;;;5094824;28;20054;-71
2022/07/26 09:14:49;;;;;;;10.67;2.97;;;18.90;99.90;;;;;;5093591;28;20051;-71
2022/07/26 09:17:18;;;;;;;10.40;2.70;;;18.90;99.90;;;;;;5094717;28;20476;-71
2022/07/26 09:19:44;;;;;;;11.93;2.97;;;18.90;99.90;;;;;;5094605;28;20044;-71
2022/07/26 09:22:14;;;;;;;13.37;3.40;;;19.00;99.90;;;;;;5093458;28;20087;-71
2022/07/26 09:24:43;;;;;;;12.40;3.20;;;19.00;99.90;;;;;;5093409;28;20059;-71
2022/07/26 09:27:12;;;;;;;13.67;3.23;;;19.00;99.90;;;;;;5094740;28;20135;-74
2022/07/26 09:30:06;;;;;;;13.33;2.87;;;19.10;99.90;;;;;;5093228;28;20051;-71
2022/07/26 09:32:32;;;;;;;13.23;3.47;;;19.20;99.90;;;;;;5094263;28;20128;-71
2022/07/26 09:35:20;;;;;;;15.53;2.83;;;19.30;99.90;;;;;;5094118;28;20484;-71
2022/07/26 09:37:47;;;;;;;9.97;2.80;;;19.30;99.90;;;;;;5094940;28;20052;-71
2022/07/26 09:40:15;;;;;;;13.47;2.90;;;19.30;99.90;;;;;;5094246;28;20048;-71
2022/07/26 09:43:00;;;;;;;12.93;2.90;;;19.50;99.90;;;;;;5093895;28;20507;-71
2022/07/26 09:45:27;;;;;;;12.90;3.42;;;19.60;99.90;;;;;;5093855;28;20040;-71
2022/07/26 09:47:53;;;;;;;17.43;3.00;;;19.70;99.90;;;;;;5094572;28;20430;-72
2022/07/26 09:50:22;;;;;;;12.23;2.73;;;19.90;99.90;;;;;;5094068;28;20052;-71
2022/07/26 09:53:09;;;;;;;15.50;3.00;;;20.20;99.90;;;;;;5094514;28;20036;-71
2022/07/26 09:55:53;;;;;;;11.40;2.60;;;20.40;97.10;;;;;;5093971;28;20055;-72
2022/07/26 09:58:19;;;;;;;14.05;3.25;;;20.40;96.80;;;;;;5094139;28;20087;-72
2022/07/26 10:00:45;;;;;;;10.77;2.60;;;20.40;95.30;;;;;;5093903;28;20083;-72
2022/07/26 10:03:10;;;;;;;12.73;2.67;;;20.50;95.60;;;;;;5094191;28;20047;-72
2022/07/26 10:05:36;;;;;;;11.43;2.70;;;20.60;94.70;;;;;;5092635;28;20167;-72
2022/07/26 10:08:03;;;;;;;8.77;2.23;;;20.70;94.10;;;;;;5093811;28;20511;-72
2022/07/26 10:10:44;;;;;;;11.73;2.43;;;20.90;94.30;;;;;;5093781;28;20131;-72
2022/07/26 10:13:10;;;;;;;8.37;2.27;;;21.00;92.60;;;;;;5094356;28;20372;-72
2022/07/26 10:15:44;;;;;;;9.67;2.30;;;21.00;91.00;;;;;;5093667;28;20476;-72
2022/07/26 10:18:36;;;;;;;8.13;2.28;;;21.00;90.40;;;;;;5093828;28;20047;-72
2022/07/26 10:21:24;;;;;;;8.47;1.90;;;21.00;84.20;;;;;;5086739;28;20087;-72
2022/07/26 10:23:56;;;;;;;10.03;2.07;;;21.20;83.40;;;;;;5094209;28;20369;-72
2022/07/26 10:26:31;;;;;;;8.87;2.17;;;21.30;86.50;;;;;;5093433;28;20417;-73
2022/07/26 10:29:18;;;;;;;10.43;2.10;;;21.40;83.00;;;;;;5092536;28;20392;-72
2022/07/26 10:31:45;;;;;;;8.80;2.00;;;21.50;81.20;;;;;;5093484;28;20472;-72
2022/07/26 10:34:34;;;;;;;6.53;1.80;;;21.50;78.60;;;;;;5093395;28;20097;-72
2022/07/26 10:37:05;;;;;;;8.57;2.13;;;21.60;78.20;;;;;;5093441;28;20044;-73
2022/07/26 10:39:31;;;;;;;7.70;1.90;;;21.70;76.30;;;;;;5094016;28;20056;-73
2022/07/26 10:42:00;;;;;;;8.97;2.03;;;21.70;75.40;;;;;;5093966;28;20063;-72
2022/07/26 10:44:28;;;;;;;10.40;2.13;;;21.90;74.50;;;;;;5093337;28;20083;-73
2022/07/26 10:46:58;;;;;;;7.50;2.10;;;21.90;72.40;;;;;;5093142;28;20470;-73
2022/07/26 10:49:35;;;;;;;5.93;1.60;;;21.80;70.80;;;;;;5094101;28;20044;-73
2022/07/26 10:52:18;;;;;;;7.70;1.60;;;22.00;68.20;;;;;;5093275;28;20052;-72
2022/07/26 10:54:56;;;;;;;7.30;1.60;;;22.00;69.00;;;;;;5093301;28;20040;-73
2022/07/26 10:57:23;;;;;;;9.60;2.47;;;22.10;68.10;;;;;;5094753;28;20048;-73
2022/07/26 10:59:49;;;;;;;9.80;2.00;;;22.20;68.50;;;;;;5097338;28;20052;-73
2022/07/26 11:02:19;;;;;;;6.13;1.63;;;22.10;66.80;;;;;;5097274;28;20040;-73
2022/07/26 11:04:45;;;;;;;6.47;1.77;;;22.10;66.50;;;;;;5096007;28;20502;-73
2022/07/26 11:07:13;;;;;;;8.03;1.63;;;22.20;67.60;;;;;;5097635;28;20130;-73
2022/07/26 11:09:39;;;;;;;8.83;2.27;;;22.30;67.10;;;;;;5097116;28;20044;-73
2022/07/26 11:12:15;;;;;;;9.33;1.87;;;22.20;66.20;;;;;;5097036;28;20127;-73
2022/07/26 11:14:41;;;;;;;8.60;2.33;;;22.20;63.50;;;;;;5097049;28;20070;-73
2022/07/26 11:17:07;;;;;;;6.67;1.80;;;22.10;65.20;;;;;;5097562;28;20044;-73
2022/07/26 11:19:38;;;;;;;6.10;1.63;;;22.00;65.20;;;;;;5079111;28;20468;-73
2022/07/26 11:22:04;;;;;;;7.87;1.83;;;21.90;64.00;;;;;;5096812;28;20044;-73
2022/07/26 11:24:30;;;;;;;7.23;2.10;;;21.80;64.70;;;;;;5096119;28;20048;-72
2022/07/26 11:27:01;;;;;;;8.73;2.17;;;21.80;65.70;;;;;;5095797;28;20471;-73
2022/07/26 11:29:33;;;;;;;9.50;2.27;;;21.70;66.00;;;;;;5096091;28;20051;-73
2022/07/26 11:31:59;;;;;;;10.50;3.50;;;21.70;66.00;;;;;;5097245;28;20089;-72
2022/07/26 11:34:28;;;;;;;8.23;1.77;;;21.80;65.60;;;;;;5096641;28;20044;-73
2022/07/26 11:36:56;;;;;;;8.30;2.00;;;21.80;66.20;;;;;;5096865;28;20040;-73
2022/07/26 11:39:31;;;;;;;9.03;2.07;;;21.80;66.20;;;;;;5096579;28;20048;-73
2022/07/26 11:42:03;;;;;;;6.60;1.97;;;21.80;66.30;;;;;;5096311;28;20056;-72
2022/07/26 11:44:29;;;;;;;9.17;2.00;;;21.90;65.30;;;;;;5096482;28;20048;-73
2022/07/26 11:46:56;;;;;;;8.63;2.00;;;21.90;65.70;;;;;;5096676;28;20064;-73
2022/07/26 11:49:25;;;;;;;7.70;1.73;;;21.90;65.40;;;;;;5096530;28;20097;-73
2022/07/26 11:51:59;;;;;;;7.67;1.40;;;22.00;65.40;;;;;;5096468;28;20063;-72
2022/07/26 11:54:27;;;;;;;5.45;1.50;;;22.10;65.00;;;;;;5096391;28;20075;-72
2022/07/26 11:57:03;;;;;;;7.40;1.80;;;22.20;64.90;;;;;;5097063;28;20071;-72
2022/07/26 11:59:31;;;;;;;5.70;1.80;;;22.20;65.20;;;;;;5096059;28;20099;-73
2022/07/26 12:01:59;;;;;;;11.87;2.53;;;22.30;65.60;;;;;;5096696;28;20434;-73
2022/07/26 12:04:27;;;;;;;5.90;1.57;;;22.40;65.70;;;;;;5096872;28;20051;-73
2022/07/26 12:06:55;;;;;;;6.53;2.03;;;22.30;64.80;;;;;;5096047;28;20471;-73
2022/07/26 12:09:32;;;;;;;5.37;1.77;;;22.20;64.60;;;;;;5095685;28;20055;-72
2022/07/26 12:11:59;;;;;;;5.97;1.63;;;22.20;64.70;;;;;;5095989;28;20048;-73
2022/07/26 12:14:27;;;;;;;9.97;2.17;;;22.10;64.50;;;;;;5095934;28;20091;-73
2022/07/26 12:16:53;;;;;;;7.73;2.10;;;22.10;65.40;;;;;;5095887;28;20059;-72
2022/07/26 12:19:27;;;;;;;8.77;1.90;;;22.10;65.90;;;;;;5095855;28;20066;-73
2022/07/26 12:21:57;;;;;;;8.30;2.17;;;22.10;65.80;;;;;;5095823;28;20081;-73
2022/07/26 12:24:57;;;;;;;7.90;1.80;;;22.10;65.20;;;;;;5096280;28;20089;-73
2022/07/26 12:27:26;;;;;;;5.47;1.50;;;22.10;65.90;;;;;;5096475;28;20365;-72
2022/07/26 12:30:01;;;;;;;6.67;1.57;;;22.10;65.40;;;;;;5095616;28;20056;-73
2022/07/26 12:32:31;;;;;;;10.20;1.70;;;22.20;65.60;;;;;;5095535;28;20044;-72
2022/07/26 12:35:01;;;;;;;8.20;1.77;;;22.20;65.60;;;;;;5095517;28;20127;-73
2022/07/26 12:37:33;;;;;;;7.57;1.97;;;22.10;66.00;;;;;;5095153;28;20507;-73
2022/07/26 12:40:15;;;;;;;13.07;1.90;;;22.00;66.70;;;;;;5095463;28;20040;-73
2022/07/26 12:42:50;;;;;;;10.53;2.20;;;21.90;66.90;;;;;;5095868;28;20044;-73
2022/07/26 12:45:19;;;;;;;;;;;21.90;66.50;;;;;;5095748;28;20054;-72
2022/07/26 12:47:48;;;;;;;7.93;1.97;;;21.80;67.50;;;;;;5094905;28;19924;-73